Time;durP1;ratioP1;P1;durP2;ratioP2;P2;SDS_P1;SDS_P2;PMS_P1;PMS_P2;Temp;Humidity;BMP_temperature;BMP_pressure;BME280_temperature;BME280_humidity;BME280_pressure;Samples;Min_cycle;Max_cycle;Signal;HPM_P1;HPM_P2
2022/12/21 00:01:14;;;;;;;18.30;15.93;;;6.40;43.90;;;;;;10461302;28;20224;-70
2022/12/21 00:06:17;;;;;;;20.00;16.33;;;6.40;44.30;;;;;;10459415;28;20723;-70
2022/12/21 00:11:24;;;;;;;17.97;15.10;;;6.40;43.90;;;;;;10456935;28;20253;-70
2022/12/21 00:16:30;;;;;;;18.60;15.53;;;6.30;44.20;;;;;;10461901;28;20251;-70
2022/12/21 00:21:35;;;;;;;18.30;15.67;;;6.30;44.40;;;;;;10462669;28;20248;-70
2022/12/21 00:26:39;;;;;;;21.07;17.43;;;6.30;44.40;;;;;;10459137;28;20233;-70
2022/12/21 00:31:44;;;;;;;19.10;15.37;;;6.30;44.20;;;;;;10459261;28;20251;-70
2022/12/21 00:36:49;;;;;;;19.83;16.87;;;6.40;44.30;;;;;;10458530;28;20240;-70
2022/12/21 00:41:52;;;;;;;19.87;16.30;;;6.30;44.20;;;;;;10456266;28;20231;-70
2022/12/21 00:46:57;;;;;;;19.80;15.80;;;6.20;44.10;;;;;;10459753;28;20248;-70
2022/12/21 00:52:00;;;;;;;18.00;14.33;;;6.20;44.50;;;;;;10462216;28;20224;-70
2022/12/21 00:57:03;;;;;;;21.77;17.07;;;6.20;44.40;;;;;;10480732;28;20691;-70
2022/12/21 01:02:08;;;;;;;18.47;15.67;;;6.20;44.40;;;;;;10449960;28;20759;-70
2022/12/21 01:07:11;;;;;;;19.87;16.20;;;6.20;44.50;;;;;;10462485;28;20247;-69
2022/12/21 01:12:14;;;;;;;18.70;15.53;;;6.20;44.40;;;;;;10464339;28;20709;-69
2022/12/21 01:17:19;;;;;;;19.87;16.77;;;6.20;44.50;;;;;;10454601;28;20271;-69
2022/12/21 01:22:22;;;;;;;16.77;14.13;;;6.20;44.50;;;;;;10466337;28;20278;-70
2022/12/21 01:27:25;;;;;;;17.23;14.30;;;6.20;44.50;;;;;;10462178;28;20236;-69
2022/12/21 01:32:30;;;;;;;19.33;15.90;;;6.20;44.50;;;;;;10465507;28;20228;-69
2022/12/21 01:37:33;;;;;;;16.20;13.73;;;6.20;44.60;;;;;;10466637;28;20319;-68
2022/12/21 01:42:36;;;;;;;16.97;14.80;;;6.30;44.60;;;;;;10466290;28;20229;-69
2022/12/21 01:47:44;;;;;;;16.97;13.53;;;6.30;44.60;;;;;;10463570;28;20730;-69
2022/12/21 01:52:47;;;;;;;17.73;14.37;;;6.30;44.80;;;;;;10467325;28;20248;-70
2022/12/21 01:57:50;;;;;;;18.17;15.00;;;6.30;44.50;;;;;;10467410;28;20232;-70
2022/12/21 02:02:59;;;;;;;21.60;15.17;;;6.30;44.50;;;;;;10466949;28;20229;-69
2022/12/21 02:08:05;;;;;;;17.07;14.57;;;6.30;44.60;;;;;;10464848;28;20308;-69
2022/12/21 02:13:14;;;;;;;19.80;16.43;;;6.30;44.50;;;;;;10464135;28;20232;-69
2022/12/21 02:18:35;;;;;;;18.63;15.70;;;6.20;44.40;;;;;;10460456;28;20232;-69
2022/12/21 02:24:08;;;;;;;18.30;15.80;;;6.20;44.80;;;;;;10464554;28;20736;-69
2022/12/21 02:29:38;;;;;;;20.10;16.80;;;6.20;44.90;;;;;;10461295;28;20331;-69
2022/12/21 02:34:54;;;;;;;17.37;14.47;;;6.20;45.00;;;;;;10463880;28;20228;-69
2022/12/21 02:40:05;;;;;;;18.10;15.47;;;6.20;44.80;;;;;;10464992;28;20227;-69
2022/12/21 02:45:19;;;;;;;16.97;14.47;;;6.20;44.70;;;;;;10481292;28;20239;-71
2022/12/21 02:50:30;;;;;;;17.63;14.83;;;6.20;44.90;;;;;;10462819;28;20232;-69
2022/12/21 02:55:33;;;;;;;20.07;14.90;;;6.20;44.80;;;;;;10460676;28;20834;-69
2022/12/21 03:00:37;;;;;;;19.83;15.50;;;6.20;44.60;;;;;;10461830;28;20228;-69
2022/12/21 03:05:53;;;;;;;17.67;14.57;;;6.20;44.60;;;;;;10463198;28;20224;-69
2022/12/21 03:11:01;;;;;;;16.77;13.80;;;6.20;45.00;;;;;;10462535;28;20228;-69
2022/12/21 03:16:13;;;;;;;18.93;15.57;;;6.20;44.90;;;;;;10460195;28;20229;-69
2022/12/21 03:21:24;;;;;;;17.53;14.60;;;6.20;44.90;;;;;;10455994;28;20232;-69
2022/12/21 03:26:34;;;;;;;17.03;14.47;;;6.20;45.00;;;;;;10463796;28;20232;-69
2022/12/21 03:31:43;;;;;;;19.17;15.50;;;6.30;45.10;;;;;;10458435;28;20236;-68
2022/12/21 03:36:53;;;;;;;19.47;16.90;;;6.20;45.10;;;;;;10465955;28;20243;-69
2022/12/21 03:42:01;;;;;;;20.17;17.43;;;6.20;45.10;;;;;;10467304;28;20228;-69
2022/12/21 03:47:09;;;;;;;24.60;18.00;;;6.20;45.10;;;;;;10458250;28;20595;-69
2022/12/21 03:52:16;;;;;;;21.13;17.80;;;6.20;45.20;;;;;;10463326;28;20709;-69
2022/12/21 03:57:20;;;;;;;20.47;16.30;;;6.20;45.20;;;;;;10463098;28;20220;-70
2022/12/21 04:02:27;;;;;;;19.07;15.77;;;6.20;45.80;;;;;;10467065;28;20225;-71
2022/12/21 04:07:34;;;;;;;22.13;16.97;;;6.30;45.20;;;;;;10463061;28;20236;-71
2022/12/21 04:12:38;;;;;;;17.07;14.80;;;6.20;45.20;;;;;;10454375;28;20229;-71
2022/12/21 04:17:43;;;;;;;17.83;15.03;;;6.20;45.20;;;;;;10457722;28;20644;-71
2022/12/21 04:28:14;;;;;;;19.23;15.37;;;6.20;45.50;;;;;;10468917;28;20592;-70
2022/12/21 04:33:38;;;;;;;17.90;14.67;;;6.20;45.60;;;;;;10470337;28;20656;-70
2022/12/21 04:38:44;;;;;;;21.77;17.43;;;6.30;45.40;;;;;;10467705;28;20231;-70
2022/12/21 04:43:47;;;;;;;20.37;17.60;;;6.30;45.60;;;;;;10470012;28;20236;-71
2022/12/21 04:48:50;;;;;;;19.43;17.30;;;6.30;45.30;;;;;;10476160;28;20224;-71
2022/12/21 04:53:55;;;;;;;20.07;16.93;;;6.30;45.40;;;;;;10471998;28;20228;-72
2022/12/21 04:58:58;;;;;;;18.80;15.90;;;6.30;45.80;;;;;;10469191;28;20841;-72
2022/12/21 05:04:02;;;;;;;18.97;13.07;;;6.30;45.60;;;;;;10463738;28;20235;-73
2022/12/21 05:09:06;;;;;;;19.40;15.77;;;6.30;45.60;;;;;;10467721;28;20232;-72
2022/12/21 05:14:10;;;;;;;19.93;15.37;;;6.30;45.80;;;;;;10465253;28;20229;-70
2022/12/21 05:19:14;;;;;;;16.60;14.60;;;6.40;45.60;;;;;;10475308;28;20234;-73
2022/12/21 05:24:18;;;;;;;19.83;15.27;;;6.40;45.70;;;;;;10485162;28;20224;-72
2022/12/21 05:29:21;;;;;;;17.60;15.33;;;6.40;45.60;;;;;;10461657;28;20231;-72
2022/12/21 05:34:24;;;;;;;16.60;14.17;;;6.40;45.50;;;;;;10468411;28;20768;-72
2022/12/21 05:39:29;;;;;;;19.50;15.53;;;6.40;45.50;;;;;;10464856;28;20224;-72
2022/12/21 05:44:32;;;;;;;17.40;15.13;;;6.40;45.60;;;;;;10469030;28;20596;-70
2022/12/21 05:49:35;;;;;;;16.87;13.60;;;6.40;45.60;;;;;;10476928;28;20216;-71
2022/12/21 05:54:40;;;;;;;18.90;14.77;;;6.50;45.70;;;;;;10483085;28;20258;-73
2022/12/21 05:59:44;;;;;;;20.03;15.73;;;6.40;45.80;;;;;;10494315;28;20240;-73
2022/12/21 06:04:47;;;;;;;20.33;14.63;;;6.50;45.80;;;;;;10473905;28;20658;-70
2022/12/21 06:09:52;;;;;;;19.10;15.13;;;6.50;45.70;;;;;;10476951;28;20236;-72
2022/12/21 06:14:55;;;;;;;22.30;16.77;;;6.50;45.90;;;;;;10477216;28;20495;-73
2022/12/21 06:19:58;;;;;;;21.23;14.97;;;6.50;45.80;;;;;;10481385;28;20229;-73
2022/12/21 06:25:03;;;;;;;19.80;14.50;;;6.50;45.80;;;;;;10476560;28;20622;-77
2022/12/21 06:30:08;;;;;;;12.23;10.90;;;6.50;46.00;;;;;;10478598;28;20233;-72
2022/12/21 06:35:12;;;;;;;18.60;15.20;;;6.60;46.70;;;;;;10478538;28;20231;-72
2022/12/21 06:40:16;;;;;;;21.63;16.33;;;6.70;46.30;;;;;;10480522;28;20701;-72
2022/12/21 06:45:20;;;;;;;20.90;15.53;;;6.70;46.20;;;;;;10485344;28;20225;-72
2022/12/21 06:50:25;;;;;;;20.03;14.57;;;6.80;45.90;;;;;;10480080;28;20598;-72
2022/12/21 06:55:29;;;;;;;19.33;14.83;;;6.80;46.00;;;;;;10481753;28;20281;-72
2022/12/21 07:00:33;;;;;;;15.83;13.53;;;6.80;45.90;;;;;;10477628;28;20233;-71
2022/12/21 07:05:36;;;;;;;20.20;14.83;;;6.80;45.80;;;;;;10479246;28;20224;-71
2022/12/21 07:10:41;;;;;;;16.27;13.93;;;6.80;45.70;;;;;;10485460;28;20227;-68
2022/12/21 07:15:47;;;;;;;18.10;14.27;;;6.80;45.80;;;;;;10482090;28;20801;-71
2022/12/21 07:20:56;;;;;;;17.73;14.80;;;6.70;45.50;;;;;;10480971;28;20277;-72
2022/12/21 07:26:01;;;;;;;15.93;12.60;;;6.70;45.60;;;;;;10479782;28;20285;-71
2022/12/21 07:31:13;;;;;;;19.10;16.07;;;6.70;45.80;;;;;;10483918;28;20235;-71
2022/12/21 07:36:16;;;;;;;15.50;13.13;;;6.70;45.80;;;;;;10478415;28;20232;-71
2022/12/21 07:41:21;;;;;;;19.07;15.80;;;6.70;45.80;;;;;;10475174;28;20628;-68
2022/12/21 07:46:24;;;;;;;18.43;13.97;;;6.70;46.00;;;;;;10478538;28;20236;-68
2022/12/21 07:51:27;;;;;;;15.63;12.23;;;6.70;45.90;;;;;;10480673;28;20716;-71
2022/12/21 07:56:32;;;;;;;14.50;11.60;;;6.70;46.70;;;;;;10473817;28;20235;-72
2022/12/21 08:01:35;;;;;;;17.53;12.20;;;6.70;46.50;;;;;;10469860;28;20224;-71
2022/12/21 08:06:38;;;;;;;15.20;11.80;;;6.70;46.50;;;;;;10466649;28;20767;-71
2022/12/21 08:11:49;;;;;;;13.57;11.00;;;6.80;46.60;;;;;;10460319;28;20236;-76
2022/12/21 08:16:52;;;;;;;13.00;10.00;;;6.80;47.30;;;;;;10471904;28;20292;-72
2022/12/21 08:21:55;;;;;;;14.73;10.97;;;6.90;48.10;;;;;;10469815;28;20216;-70
2022/12/21 08:27:00;;;;;;;13.77;11.10;;;7.00;47.70;;;;;;10466891;28;20220;-70
2022/12/21 08:32:03;;;;;;;12.60;10.73;;;7.10;47.60;;;;;;10464768;28;20231;-69
2022/12/21 08:37:06;;;;;;;13.13;10.67;;;7.20;47.20;;;;;;10465331;28;20224;-69
2022/12/21 08:42:12;;;;;;;12.70;10.63;;;7.20;47.10;;;;;;10472497;28;20220;-69
2022/12/21 08:47:15;;;;;;;13.07;10.53;;;7.20;47.30;;;;;;10466822;28;20232;-69
2022/12/21 08:52:18;;;;;;;12.10;9.70;;;7.30;47.20;;;;;;10473053;28;20295;-74
2022/12/21 08:57:23;;;;;;;10.90;9.80;;;7.30;47.40;;;;;;10476148;28;20242;-74
2022/12/21 09:02:26;;;;;;;13.23;9.50;;;7.30;48.10;;;;;;10464394;28;20741;-74
2022/12/21 09:07:29;;;;;;;11.10;9.17;;;7.40;48.10;;;;;;10472314;28;20232;-74
2022/12/21 09:12:34;;;;;;;10.30;9.23;;;7.40;48.20;;;;;;10474136;28;20232;-74
2022/12/21 09:17:37;;;;;;;10.13;8.83;;;7.40;48.70;;;;;;10476646;28;20236;-71
2022/12/21 09:22:40;;;;;;;9.37;8.27;;;7.50;48.50;;;;;;10480055;28;20692;-70
2022/12/21 09:27:51;;;;;;;10.07;8.57;;;7.60;48.70;;;;;;10483846;28;20255;-70
2022/12/21 09:32:54;;;;;;;9.53;8.63;;;7.60;49.20;;;;;;10475235;28;20719;-70
2022/12/21 09:37:58;;;;;;;10.50;8.70;;;7.70;48.80;;;;;;10481693;28;20229;-71
2022/12/21 09:43:10;;;;;;;9.30;8.30;;;7.80;49.00;;;;;;10480929;28;20808;-70
2022/12/21 09:48:18;;;;;;;8.87;6.93;;;7.90;50.00;;;;;;10480765;28;20227;-71
2022/12/21 09:53:34;;;;;;;7.60;6.80;;;8.00;49.90;;;;;;10471894;28;20232;-69
2022/12/21 09:58:42;;;;;;;7.80;6.90;;;8.10;50.50;;;;;;10461488;28;20231;-69
2022/12/21 10:04:13;;;;;;;7.90;7.10;;;8.20;50.70;;;;;;10472981;28;20676;-70
2022/12/21 10:09:50;;;;;;;10.53;9.47;;;8.30;51.30;;;;;;10468195;28;20790;-70
2022/12/21 10:15:11;;;;;;;10.00;9.00;;;8.40;50.30;;;;;;10467136;28;20225;-69
2022/12/21 10:20:28;;;;;;;13.33;11.77;;;8.50;49.70;;;;;;10470431;28;20626;-69
2022/12/21 10:25:39;;;;;;;12.47;10.37;;;8.60;49.40;;;;;;10469470;28;20276;-74
2022/12/21 10:30:57;;;;;;;10.73;9.10;;;8.60;49.00;;;;;;10484149;28;20221;-73
2022/12/21 10:36:04;;;;;;;10.10;9.03;;;8.60;49.50;;;;;;10485430;28;20216;-69
2022/12/21 10:41:13;;;;;;;9.13;8.33;;;8.60;49.10;;;;;;10485212;28;20650;-71
2022/12/21 10:46:19;;;;;;;9.33;8.27;;;8.60;49.40;;;;;;10479135;28;20224;-74
2022/12/21 10:51:28;;;;;;;8.93;7.83;;;8.70;50.30;;;;;;10478174;28;20232;-70
2022/12/21 10:56:34;;;;;;;9.30;7.90;;;8.80;50.50;;;;;;10485112;28;20317;-72
2022/12/21 11:01:38;;;;;;;10.80;9.07;;;8.90;49.60;;;;;;10486769;28;20239;-74
2022/12/21 11:06:56;;;;;;;8.77;7.83;;;9.00;49.20;;;;;;10473165;28;20709;-70
2022/12/21 11:12:15;;;;;;;8.20;7.40;;;9.10;49.60;;;;;;10472113;28;20217;-71
2022/12/21 11:17:24;;;;;;;9.10;8.20;;;9.10;49.40;;;;;;10479510;28;21182;-70
2022/12/21 11:22:30;;;;;;;7.93;7.20;;;9.10;48.60;;;;;;10472793;28;20306;-71
2022/12/21 11:27:59;;;;;;;8.80;8.00;;;9.10;48.40;;;;;;10470636;28;20227;-70
2022/12/21 11:33:04;;;;;;;8.60;7.80;;;9.10;48.50;;;;;;10478934;28;20221;-71
2022/12/21 11:38:13;;;;;;;10.33;8.17;;;9.10;48.20;;;;;;10471002;28;20219;-73
2022/12/21 11:43:17;;;;;;;12.30;10.47;;;9.10;48.70;;;;;;10477216;28;20275;-76
2022/12/21 11:48:31;;;;;;;10.47;9.47;;;9.10;48.70;;;;;;10469063;28;20224;-76
2022/12/21 11:54:02;;;;;;;8.43;7.67;;;9.10;49.20;;;;;;10478290;28;20224;-70
2022/12/21 11:59:22;;;;;;;9.33;8.43;;;9.10;48.90;;;;;;10473921;28;20223;-70
2022/12/21 12:04:42;;;;;;;9.73;8.93;;;9.10;48.60;;;;;;10474807;28;20236;-70
2022/12/21 12:10:10;;;;;;;9.10;8.30;;;9.10;48.90;;;;;;10475892;28;20228;-70
2022/12/21 12:15:30;;;;;;;8.37;7.57;;;9.10;48.90;;;;;;10476382;28;20269;-70
2022/12/21 12:21:12;;;;;;;8.47;7.67;;;9.10;48.90;;;;;;10480935;28;20233;-70
2022/12/21 12:26:23;;;;;;;8.93;8.07;;;9.10;48.80;;;;;;10473228;28;20226;-75
2022/12/21 12:31:39;;;;;;;8.67;7.77;;;9.10;48.30;;;;;;10475257;28;20238;-76
2022/12/21 12:36:51;;;;;;;11.87;9.33;;;9.10;48.30;;;;;;10479092;28;20286;-76
2022/12/21 12:42:07;;;;;;;7.40;6.70;;;9.10;48.40;;;;;;10469003;28;20242;-76
2022/12/21 12:47:25;;;;;;;7.40;6.70;;;9.10;48.60;;;;;;10472018;28;20307;-74
2022/12/21 12:52:47;;;;;;;8.60;7.80;;;9.00;48.80;;;;;;10482333;28;20220;-74
2022/12/21 12:57:59;;;;;;;9.07;8.20;;;9.10;49.00;;;;;;10484891;28;20240;-74
2022/12/21 13:03:16;;;;;;;7.17;6.23;;;9.10;48.70;;;;;;10488868;28;20583;-71
2022/12/21 13:08:36;;;;;;;6.97;6.27;;;9.10;48.60;;;;;;10479626;28;20255;-70
2022/12/21 13:13:46;;;;;;;10.53;9.53;;;9.10;48.50;;;;;;10481017;28;20731;-70
2022/12/21 13:18:52;;;;;;;12.40;10.67;;;9.10;48.10;;;;;;10483223;28;20227;-70
2022/12/21 13:24:00;;;;;;;14.03;12.63;;;9.10;47.90;;;;;;10478040;28;20583;-70
2022/12/21 13:29:11;;;;;;;14.77;13.37;;;9.10;48.00;;;;;;10479605;28;20564;-70
2022/12/21 13:34:20;;;;;;;13.07;11.87;;;9.10;48.20;;;;;;10484761;28;20228;-74
2022/12/21 13:39:29;;;;;;;14.37;12.87;;;9.10;48.30;;;;;;10477853;28;20728;-73
2022/12/21 13:44:38;;;;;;;13.10;11.83;;;9.10;48.20;;;;;;10490338;28;20232;-74
2022/12/21 13:49:57;;;;;;;13.47;11.40;;;9.10;48.00;;;;;;10490345;28;20614;-74
2022/12/21 13:55:16;;;;;;;19.87;11.00;;;9.00;48.30;;;;;;10488073;28;20268;-73
2022/12/21 14:00:24;;;;;;;11.63;10.53;;;9.00;48.10;;;;;;10484943;28;20247;-73
2022/12/21 14:05:30;;;;;;;12.27;11.17;;;9.00;47.80;;;;;;10494119;28;20224;-74
2022/12/21 14:10:44;;;;;;;15.50;13.13;;;9.00;47.70;;;;;;10485892;28;20220;-71
2022/12/21 14:15:58;;;;;;;17.00;12.27;;;9.00;47.90;;;;;;10486770;28;20262;-71
2022/12/21 14:21:06;;;;;;;9.20;8.40;;;8.90;48.00;;;;;;10485375;28;20235;-71
2022/12/21 14:26:31;;;;;;;9.83;8.93;;;8.90;47.70;;;;;;10482721;28;20228;-69
2022/12/21 14:31:35;;;;;;;14.83;9.00;;;8.90;48.00;;;;;;10482830;28;20278;-69
2022/12/21 14:36:39;;;;;;;9.50;8.43;;;8.80;47.80;;;;;;10487382;28;20229;-70
2022/12/21 14:41:44;;;;;;;12.00;10.87;;;8.80;47.80;;;;;;10486204;28;20216;-71
2022/12/21 14:47:23;;;;;;;9.70;8.87;;;8.80;48.10;;;;;;10483403;28;20315;-73
2022/12/21 14:52:33;;;;;;;36.47;18.23;;;8.80;48.50;;;;;;10479393;28;20240;-73
2022/12/21 14:57:40;;;;;;;24.93;21.43;;;8.80;48.30;;;;;;10479796;28;20220;-71
2022/12/21 15:02:50;;;;;;;16.80;15.07;;;8.80;48.10;;;;;;10486313;28;20217;-73
2022/12/21 15:07:56;;;;;;;19.37;17.33;;;8.80;48.30;;;;;;10479182;28;20248;-74
2022/12/21 15:13:01;;;;;;;16.00;14.17;;;8.80;47.80;;;;;;10485124;28;20223;-74
2022/12/21 15:18:52;;;;;;;17.13;15.17;;;8.70;47.90;;;;;;10477252;28;20220;-70
2022/12/21 15:23:59;;;;;;;21.47;16.57;;;8.70;48.30;;;;;;10433866;28;20216;-70
2022/12/21 15:29:05;;;;;;;18.30;15.60;;;8.70;47.70;;;;;;10472728;28;20220;-70
2022/12/21 15:34:12;;;;;;;15.03;13.57;;;8.70;47.40;;;;;;10473603;28;20239;-70
2022/12/21 15:39:22;;;;;;;21.10;18.43;;;8.60;47.30;;;;;;10462234;28;20228;-70
2022/12/21 15:44:39;;;;;;;19.43;16.83;;;8.60;47.40;;;;;;10468108;28;20236;-70
2022/12/21 15:49:46;;;;;;;17.27;15.47;;;8.50;47.40;;;;;;10472380;28;20243;-70
2022/12/21 15:54:49;;;;;;;19.33;17.43;;;8.50;47.30;;;;;;10471092;28;20223;-70
2022/12/21 15:59:54;;;;;;;24.90;22.17;;;8.40;47.20;;;;;;10474146;28;20754;-70
2022/12/21 16:04:59;;;;;;;23.07;20.73;;;8.40;47.50;;;;;;10469680;28;20255;-73
2022/12/21 16:10:06;;;;;;;30.33;14.03;;;8.40;47.40;;;;;;10473212;28;20265;-70
2022/12/21 16:15:25;;;;;;;158.97;15.93;;;8.30;47.00;;;;;;10472226;28;20277;-70
2022/12/21 16:20:31;;;;;;;12.93;11.73;;;8.30;46.80;;;;;;10472053;28;20239;-69
2022/12/21 16:25:36;;;;;;;36.40;11.70;;;8.20;46.60;;;;;;10484847;28;20248;-72
2022/12/21 16:31:00;;;;;;;91.27;18.13;;;8.10;46.70;;;;;;10478809;28;20267;-72
2022/12/21 16:36:05;;;;;;;82.37;21.40;;;8.00;46.80;;;;;;10483036;28;20248;-74
2022/12/21 16:41:11;;;;;;;80.90;34.77;;;8.00;46.70;;;;;;10483409;28;20336;-72
2022/12/21 16:46:18;;;;;;;33.30;27.63;;;7.90;46.60;;;;;;10469198;28;20689;-72
2022/12/21 16:51:38;;;;;;;30.87;25.67;;;7.80;46.90;;;;;;10493337;28;20229;-69
2022/12/21 16:56:46;;;;;;;24.17;21.40;;;7.80;47.20;;;;;;10481404;28;20228;-69
2022/12/21 17:02:00;;;;;;;35.33;30.33;;;7.70;46.80;;;;;;10478566;28;20247;-69
2022/12/21 17:07:07;;;;;;;36.70;31.67;;;7.70;46.50;;;;;;10480533;28;20465;-71
2022/12/21 17:12:19;;;;;;;62.50;46.33;;;7.60;46.70;;;;;;10472899;28;20259;-72
2022/12/21 17:17:43;;;;;;;45.43;34.57;;;7.60;46.80;;;;;;10487143;28;20235;-72
2022/12/21 17:22:59;;;;;;;82.17;29.00;;;7.50;46.70;;;;;;10489461;28;20224;-72
2022/12/21 17:28:04;;;;;;;21.30;17.73;;;7.50;46.90;;;;;;10485613;28;20247;-69
2022/12/21 17:33:18;;;;;;;21.27;15.07;;;7.50;46.50;;;;;;10478714;28;20240;-69
2022/12/21 17:38:22;;;;;;;16.40;13.00;;;7.40;46.70;;;;;;10476478;28;20794;-69
2022/12/21 17:43:25;;;;;;;26.90;12.50;;;7.40;46.50;;;;;;10483231;28;20300;-73
2022/12/21 17:48:29;;;;;;;25.90;14.30;;;7.30;46.70;;;;;;10482673;28;20278;-74
2022/12/21 17:53:33;;;;;;;41.67;22.70;;;7.30;46.70;;;;;;10470624;28;20225;-73
2022/12/21 17:58:36;;;;;;;32.10;22.07;;;7.30;46.60;;;;;;10479022;28;20590;-73
2022/12/21 18:03:42;;;;;;;25.83;19.57;;;7.30;46.80;;;;;;10476364;28;20212;-74
2022/12/21 18:08:46;;;;;;;24.73;20.20;;;7.30;47.00;;;;;;10479951;28;20873;-73
2022/12/21 18:13:50;;;;;;;26.47;21.53;;;7.30;46.80;;;;;;10486855;28;20350;-74
2022/12/21 18:18:55;;;;;;;23.13;19.43;;;7.30;46.90;;;;;;10492809;28;20228;-70
2022/12/21 18:23:58;;;;;;;24.93;19.13;;;7.30;46.80;;;;;;10485748;28;20731;-70
2022/12/21 18:29:01;;;;;;;18.20;16.37;;;7.30;46.70;;;;;;10485981;28;20220;-69
2022/12/21 18:34:05;;;;;;;17.73;15.97;;;7.30;46.90;;;;;;10473499;28;20228;-70
2022/12/21 18:39:15;;;;;;;15.73;14.23;;;7.30;47.10;;;;;;10480377;28;20223;-71
2022/12/21 18:44:18;;;;;;;15.03;12.50;;;7.20;47.20;;;;;;10475472;28;20979;-70
2022/12/21 18:49:23;;;;;;;14.30;12.87;;;7.30;47.10;;;;;;10475342;28;20237;-70
2022/12/21 18:54:26;;;;;;;15.57;13.60;;;7.30;47.10;;;;;;10474325;28;20225;-70
2022/12/21 18:59:29;;;;;;;11.83;10.63;;;7.20;47.00;;;;;;10485129;28;20236;-73
2022/12/21 19:04:34;;;;;;;12.30;11.20;;;7.20;47.20;;;;;;10479043;28;20228;-73
2022/12/21 19:09:43;;;;;;;11.77;10.67;;;7.20;47.40;;;;;;10489733;28;20303;-73
2022/12/21 19:14:46;;;;;;;12.07;10.97;;;7.20;47.50;;;;;;10480300;28;20256;-70
2022/12/21 19:19:52;;;;;;;13.07;11.77;;;7.20;47.30;;;;;;10476933;28;20224;-69
2022/12/21 19:24:57;;;;;;;16.80;15.07;;;7.20;47.20;;;;;;10471156;28;20237;-70
2022/12/21 19:30:00;;;;;;;13.97;12.67;;;7.20;47.00;;;;;;10473789;28;20224;-73
2022/12/21 19:35:06;;;;;;;14.93;13.53;;;7.20;46.90;;;;;;10481444;28;20621;-73
2022/12/21 19:40:20;;;;;;;16.00;14.40;;;7.20;47.20;;;;;;10478571;28;20308;-72
2022/12/21 19:45:23;;;;;;;14.60;13.20;;;7.20;47.10;;;;;;10478079;28;20233;-72
2022/12/21 19:50:28;;;;;;;12.37;11.27;;;7.20;46.70;;;;;;10474849;28;20216;-72
2022/12/21 19:55:32;;;;;;;14.63;13.23;;;7.20;46.70;;;;;;10482438;28;20742;-72
2022/12/21 20:00:35;;;;;;;16.07;14.63;;;7.20;46.50;;;;;;10478816;28;20231;-72
2022/12/21 20:05:40;;;;;;;23.57;19.80;;;7.20;46.50;;;;;;10476281;28;20231;-72
2022/12/21 20:10:45;;;;;;;21.53;19.40;;;7.10;47.20;;;;;;10471581;28;20236;-72
2022/12/21 20:15:48;;;;;;;20.10;18.27;;;7.10;46.70;;;;;;10469430;28;20232;-72
2022/12/21 20:21:17;;;;;;;20.07;17.97;;;7.10;46.70;;;;;;10467334;28;20224;-72
2022/12/21 20:26:31;;;;;;;18.03;16.33;;;7.10;46.80;;;;;;10471247;28;20317;-70
2022/12/21 20:31:36;;;;;;;18.27;16.37;;;7.10;46.70;;;;;;10474873;28;20579;-73
2022/12/21 20:36:41;;;;;;;24.33;21.87;;;7.10;46.60;;;;;;10467603;28;20232;-70
2022/12/21 20:47:17;;;;;;;23.23;20.90;;;7.10;46.90;;;;;;10477386;28;20223;-70
2022/12/21 20:52:24;;;;;;;26.80;24.03;;;7.10;46.90;;;;;;10480106;28;20226;-70
2022/12/21 20:57:27;;;;;;;24.03;21.63;;;7.10;47.00;;;;;;10480088;28;20244;-74
2022/12/21 21:02:31;;;;;;;24.17;21.67;;;7.10;46.90;;;;;;10482206;28;20235;-70
2022/12/21 21:07:48;;;;;;;20.63;18.63;;;7.10;47.00;;;;;;10483996;28;20285;-70
2022/12/21 21:12:52;;;;;;;20.07;18.13;;;7.10;47.20;;;;;;10472652;28;20216;-69
2022/12/21 21:17:56;;;;;;;18.43;16.63;;;7.10;47.20;;;;;;10481701;28;20228;-72
2022/12/21 21:23:03;;;;;;;16.23;14.63;;;7.10;47.20;;;;;;10471366;28;20229;-72
2022/12/21 21:28:15;;;;;;;19.87;17.97;;;7.10;47.10;;;;;;10480531;28;20235;-72
2022/12/21 21:33:18;;;;;;;19.43;17.53;;;7.10;47.20;;;;;;10479251;28;20710;-70
2022/12/21 21:43:48;;;;;;;18.33;16.53;;;7.10;47.00;;;;;;10472598;28;20606;-69
2022/12/21 21:48:51;;;;;;;16.57;14.97;;;7.10;46.90;;;;;;10488436;28;20236;-72
2022/12/21 21:53:55;;;;;;;14.87;13.47;;;7.10;46.90;;;;;;10483035;28;20223;-72
2022/12/21 21:58:58;;;;;;;14.20;12.90;;;7.10;47.10;;;;;;10481608;28;20220;-73
2022/12/21 22:04:02;;;;;;;15.87;14.37;;;7.10;47.00;;;;;;10474557;28;20875;-70
2022/12/21 22:09:07;;;;;;;17.37;15.73;;;7.10;47.00;;;;;;10472292;28;20802;-69
2022/12/21 22:14:16;;;;;;;16.63;14.97;;;7.10;47.00;;;;;;10465833;28;20224;-70
2022/12/21 22:32:10;;;;;;;17.67;15.97;;;7.20;47.20;;;;;;10471906;28;20258;-70
2022/12/21 22:46:30;;;;;;;14.10;12.70;;;7.10;47.00;;;;;;10480078;28;20234;-70
2022/12/21 22:51:35;;;;;;;13.73;12.43;;;7.10;46.90;;;;;;10460416;28;20310;-69
2022/12/21 22:56:40;;;;;;;12.23;11.00;;;7.10;46.90;;;;;;10467131;28;20304;-69
2022/12/21 23:01:45;;;;;;;13.20;12.00;;;7.10;47.10;;;;;;10471608;28;20229;-72
2022/12/21 23:06:50;;;;;;;12.37;11.27;;;7.10;47.10;;;;;;10471730;28;20228;-69
2022/12/21 23:18:31;;;;;;;13.93;12.60;;;7.10;47.00;;;;;;10464174;28;20809;-72
2022/12/21 23:27:58;;;;;;;12.43;10.40;;;7.00;46.90;;;;;;10461796;28;20751;-69
2022/12/21 23:43:41;;;;;;;11.23;10.27;;;7.00;46.90;;;;;;10426644;28;20223;-69
